aviador You're here:

KGTB Decoded Metar

FORT DRUM in NY, USA
Report Time2018-02-18 10:03:00
UTC Time2018-02-18 10:23:44
Flight Rules vfr VFR
Wind260° at 06 kt
W.Decomp.*RWY 26: 5.8 kt HW 1.3 kt RCW
RWY 33: 3.3 kt HW 5 kt LCW
RWY 21: 2.7 kt HW 5.3 kt RCW
W.Rank260° ranks 5
Current wind is below 260° avg. (8.0)
Visibility9999 m
Phenomena:N/A
Clouds:Few 005 Hf
Broken 060 Hf
Expected CloudBase > 800 ft AGL from Temp-Dew spread
Ceiling6,000 ft
Temp-2°C (ISA -16)
Dew Point-4°C (86% RH)
AAT-6.7°C
QNH1017 hPa
Density Alt-1,312 ft
Elevation679 ft
Report Wrong Elevation
Raw Report
KGTB 181003Z AUTO 26006KT 10SM -UP FEW005 BKN060 M02/M04 A3003 RMK
AO2 UPB03 SLP179 TSNO $=

Extra information for KGTB:More info

Metar Taf Metar & Taf Last 4 Metars F.Rules Stats Wind Profile Meteogram Temp Stats Airport Information Weather charts Add Link Nearby VenuesMetar ALERT Operation Metar Decoded Social comments

AIRNAV info for KGTB